sensor_id;sensor_type;location;lat;lon;timestamp;P1;durP1;ratioP1;P2;durP2;ratioP2
76115;SDS011;64847;45.778;12.802;2023-07-30T00:01:14;4.75;;;4.45;;
76115;SDS011;64847;45.778;12.802;2023-07-30T00:03:39;4.07;;;3.78;;
76115;SDS011;64847;45.778;12.802;2023-07-30T00:06:05;4.63;;;4.25;;
76115;SDS011;64847;45.778;12.802;2023-07-30T00:08:30;4.07;;;3.78;;
76115;SDS011;64847;45.778;12.802;2023-07-30T00:10:56;4.35;;;3.95;;
76115;SDS011;64847;45.778;12.802;2023-07-30T00:13:22;5.07;;;4.28;;
76115;SDS011;64847;45.778;12.802;2023-07-30T00:15:48;4.35;;;4.03;;
76115;SDS011;64847;45.778;12.802;2023-07-30T00:18:14;4.38;;;4.03;;
76115;SDS011;64847;45.778;12.802;2023-07-30T00:20:40;3.72;;;3.53;;
76115;SDS011;64847;45.778;12.802;2023-07-30T00:23:06;4.32;;;4.03;;
76115;SDS011;64847;45.778;12.802;2023-07-30T00:25:31;3.92;;;3.63;;
76115;SDS011;64847;45.778;12.802;2023-07-30T00:27:56;4.18;;;3.88;;
76115;SDS011;64847;45.778;12.802;2023-07-30T00:30:22;3.90;;;3.63;;
76115;SDS011;64847;45.778;12.802;2023-07-30T00:32:47;3.70;;;3.50;;
76115;SDS011;64847;45.778;12.802;2023-07-30T00:35:13;3.95;;;3.63;;
76115;SDS011;64847;45.778;12.802;2023-07-30T00:37:38;3.78;;;3.20;;
76115;SDS011;64847;45.778;12.802;2023-07-30T00:40:04;3.90;;;3.58;;
76115;SDS011;64847;45.778;12.802;2023-07-30T00:42:30;3.80;;;3.53;;
76115;SDS011;64847;45.778;12.802;2023-07-30T00:44:55;4.15;;;3.55;;
76115;SDS011;64847;45.778;12.802;2023-07-30T00:47:21;4.20;;;3.90;;
76115;SDS011;64847;45.778;12.802;2023-07-30T00:49:47;3.67;;;3.47;;
76115;SDS011;64847;45.778;12.802;2023-07-30T00:52:13;4.10;;;3.70;;
76115;SDS011;64847;45.778;12.802;2023-07-30T00:54:41;3.55;;;3.35;;
76115;SDS011;64847;45.778;12.802;2023-07-30T00:57:06;3.78;;;3.58;;
76115;SDS011;64847;45.778;12.802;2023-07-30T00:59:32;3.70;;;3.33;;
76115;SDS011;64847;45.778;12.802;2023-07-30T01:01:58;3.60;;;3.40;;
76115;SDS011;64847;45.778;12.802;2023-07-30T01:04:24;3.58;;;3.35;;
76115;SDS011;64847;45.778;12.802;2023-07-30T01:06:49;4.88;;;3.90;;
76115;SDS011;64847;45.778;12.802;2023-07-30T01:09:15;3.83;;;3.53;;
76115;SDS011;64847;45.778;12.802;2023-07-30T01:11:41;3.20;;;3.00;;
76115;SDS011;64847;45.778;12.802;2023-07-30T01:14:06;3.30;;;3.00;;
76115;SDS011;64847;45.778;12.802;2023-07-30T01:16:33;3.33;;;3.03;;
76115;SDS011;64847;45.778;12.802;2023-07-30T01:18:58;3.42;;;3.20;;
76115;SDS011;64847;45.778;12.802;2023-07-30T01:21:26;3.70;;;3.40;;
76115;SDS011;64847;45.778;12.802;2023-07-30T01:23:51;3.65;;;3.35;;
76115;SDS011;64847;45.778;12.802;2023-07-30T01:26:19;4.07;;;3.67;;
76115;SDS011;64847;45.778;12.802;2023-07-30T01:28:48;6.70;;;4.03;;
76115;SDS011;64847;45.778;12.802;2023-07-30T01:31:14;4.15;;;3.85;;
76115;SDS011;64847;45.778;12.802;2023-07-30T01:33:41;3.75;;;3.53;;
76115;SDS011;64847;45.778;12.802;2023-07-30T01:36:08;4.18;;;3.78;;
76115;SDS011;64847;45.778;12.802;2023-07-30T01:38:34;3.65;;;3.38;;
76115;SDS011;64847;45.778;12.802;2023-07-30T01:41:00;3.60;;;3.35;;
76115;SDS011;64847;45.778;12.802;2023-07-30T01:43:26;3.55;;;3.35;;
76115;SDS011;64847;45.778;12.802;2023-07-30T01:45:51;4.20;;;3.80;;
76115;SDS011;64847;45.778;12.802;2023-07-30T01:48:17;3.63;;;3.42;;
76115;SDS011;64847;45.778;12.802;2023-07-30T01:50:42;3.72;;;3.42;;
76115;SDS011;64847;45.778;12.802;2023-07-30T01:53:08;3.38;;;3.17;;
76115;SDS011;64847;45.778;12.802;2023-07-30T01:55:33;3.08;;;2.88;;
76115;SDS011;64847;45.778;12.802;2023-07-30T01:57:59;3.55;;;3.20;;
76115;SDS011;64847;45.778;12.802;2023-07-30T02:00:24;2.72;;;2.53;;
76115;SDS011;64847;45.778;12.802;2023-07-30T02:02:49;3.08;;;2.90;;
76115;SDS011;64847;45.778;12.802;2023-07-30T02:05:15;3.08;;;2.83;;
76115;SDS011;64847;45.778;12.802;2023-07-30T02:07:40;3.58;;;3.28;;
76115;SDS011;64847;45.778;12.802;2023-07-30T02:10:06;3.70;;;3.03;;
76115;SDS011;64847;45.778;12.802;2023-07-30T02:12:31;3.90;;;3.60;;
76115;SDS011;64847;45.778;12.802;2023-07-30T02:14:57;5.28;;;3.63;;
76115;SDS011;64847;45.778;12.802;2023-07-30T02:17:22;4.00;;;3.60;;
76115;SDS011;64847;45.778;12.802;2023-07-30T02:19:47;5.35;;;3.78;;
76115;SDS011;64847;45.778;12.802;2023-07-30T02:22:13;4.10;;;3.40;;
76115;SDS011;64847;45.778;12.802;2023-07-30T02:24:38;3.60;;;3.30;;
76115;SDS011;64847;45.778;12.802;2023-07-30T02:27:04;3.97;;;3.17;;
76115;SDS011;64847;45.778;12.802;2023-07-30T02:29:29;2.78;;;2.58;;
76115;SDS011;64847;45.778;12.802;2023-07-30T02:31:56;2.50;;;2.30;;
76115;SDS011;64847;45.778;12.802;2023-07-30T02:34:21;2.90;;;2.25;;
76115;SDS011;64847;45.778;12.802;2023-07-30T02:36:47;2.33;;;2.10;;
76115;SDS011;64847;45.778;12.802;2023-07-30T02:39:13;2.33;;;1.90;;
76115;SDS011;64847;45.778;12.802;2023-07-30T02:41:39;2.22;;;2.03;;
76115;SDS011;64847;45.778;12.802;2023-07-30T02:44:04;1.85;;;1.75;;
76115;SDS011;64847;45.778;12.802;2023-07-30T02:46:29;1.80;;;1.70;;
76115;SDS011;64847;45.778;12.802;2023-07-30T02:48:55;2.55;;;1.90;;
76115;SDS011;64847;45.778;12.802;2023-07-30T02:51:20;2.45;;;1.90;;
76115;SDS011;64847;45.778;12.802;2023-07-30T02:53:46;2.28;;;2.08;;
76115;SDS011;64847;45.778;12.802;2023-07-30T02:56:11;2.20;;;2.00;;
76115;SDS011;64847;45.778;12.802;2023-07-30T02:58:37;3.00;;;2.10;;
76115;SDS011;64847;45.778;12.802;2023-07-30T03:01:06;4.00;;;2.40;;
76115;SDS011;64847;45.778;12.802;2023-07-30T03:03:32;2.25;;;1.92;;
76115;SDS011;64847;45.778;12.802;2023-07-30T03:05:58;2.00;;;1.90;;
76115;SDS011;64847;45.778;12.802;2023-07-30T03:08:23;2.20;;;2.00;;
76115;SDS011;64847;45.778;12.802;2023-07-30T03:10:48;2.08;;;1.90;;
76115;SDS011;64847;45.778;12.802;2023-07-30T03:13:14;2.42;;;1.90;;
76115;SDS011;64847;45.778;12.802;2023-07-30T03:15:39;1.83;;;1.70;;
76115;SDS011;64847;45.778;12.802;2023-07-30T03:18:05;2.08;;;1.70;;
76115;SDS011;64847;45.778;12.802;2023-07-30T03:20:30;2.05;;;1.73;;
76115;SDS011;64847;45.778;12.802;2023-07-30T03:22:55;2.73;;;1.83;;
76115;SDS011;64847;45.778;12.802;2023-07-30T03:25:21;1.88;;;1.77;;
76115;SDS011;64847;45.778;12.802;2023-07-30T03:27:46;1.88;;;1.77;;
76115;SDS011;64847;45.778;12.802;2023-07-30T03:30:12;1.70;;;1.60;;
76115;SDS011;64847;45.778;12.802;2023-07-30T03:32:37;1.90;;;1.80;;
76115;SDS011;64847;45.778;12.802;2023-07-30T03:35:03;1.73;;;1.63;;
76115;SDS011;64847;45.778;12.802;2023-07-30T03:37:28;2.40;;;1.67;;
76115;SDS011;64847;45.778;12.802;2023-07-30T03:39:54;1.70;;;1.60;;
76115;SDS011;64847;45.778;12.802;2023-07-30T03:42:20;1.60;;;1.50;;
76115;SDS011;64847;45.778;12.802;2023-07-30T03:44:45;1.65;;;1.55;;
76115;SDS011;64847;45.778;12.802;2023-07-30T03:47:10;1.23;;;1.23;;
76115;SDS011;64847;45.778;12.802;2023-07-30T03:49:36;1.63;;;1.42;;
76115;SDS011;64847;45.778;12.802;2023-07-30T03:52:02;1.45;;;1.45;;
76115;SDS011;64847;45.778;12.802;2023-07-30T03:54:28;1.60;;;1.50;;
76115;SDS011;64847;45.778;12.802;2023-07-30T03:56:53;1.50;;;1.40;;
76115;SDS011;64847;45.778;12.802;2023-07-30T03:59:18;1.50;;;1.40;;
76115;SDS011;64847;45.778;12.802;2023-07-30T04:01:44;1.83;;;1.40;;
76115;SDS011;64847;45.778;12.802;2023-07-30T04:04:09;2.15;;;1.60;;
76115;SDS011;64847;45.778;12.802;2023-07-30T04:06:35;1.40;;;1.38;;
76115;SDS011;64847;45.778;12.802;2023-07-30T04:09:00;1.70;;;1.60;;
76115;SDS011;64847;45.778;12.802;2023-07-30T04:11:25;1.70;;;1.60;;
76115;SDS011;64847;45.778;12.802;2023-07-30T04:13:51;1.70;;;1.60;;
76115;SDS011;64847;45.778;12.802;2023-07-30T04:16:16;1.90;;;1.80;;
76115;SDS011;64847;45.778;12.802;2023-07-30T04:18:42;1.70;;;1.50;;
76115;SDS011;64847;45.778;12.802;2023-07-30T04:21:07;1.90;;;1.80;;
76115;SDS011;64847;45.778;12.802;2023-07-30T04:23:32;1.63;;;1.52;;
76115;SDS011;64847;45.778;12.802;2023-07-30T04:25:58;1.80;;;1.70;;
76115;SDS011;64847;45.778;12.802;2023-07-30T04:28:23;2.40;;;1.80;;
76115;SDS011;64847;45.778;12.802;2023-07-30T04:30:49;1.58;;;1.55;;
76115;SDS011;64847;45.778;12.802;2023-07-30T04:33:14;1.58;;;1.48;;
76115;SDS011;64847;45.778;12.802;2023-07-30T04:35:40;1.50;;;1.40;;
76115;SDS011;64847;45.778;12.802;2023-07-30T04:38:05;1.55;;;1.45;;
76115;SDS011;64847;45.778;12.802;2023-07-30T04:40:31;1.77;;;1.67;;
76115;SDS011;64847;45.778;12.802;2023-07-30T04:42:56;1.50;;;1.50;;
76115;SDS011;64847;45.778;12.802;2023-07-30T04:45:22;1.27;;;1.27;;
76115;SDS011;64847;45.778;12.802;2023-07-30T04:47:47;1.63;;;1.53;;
76115;SDS011;64847;45.778;12.802;2023-07-30T04:50:12;1.40;;;1.40;;
76115;SDS011;64847;45.778;12.802;2023-07-30T04:52:38;1.52;;;1.50;;
76115;SDS011;64847;45.778;12.802;2023-07-30T04:55:03;1.90;;;1.80;;
76115;SDS011;64847;45.778;12.802;2023-07-30T04:57:29;1.83;;;1.73;;
76115;SDS011;64847;45.778;12.802;2023-07-30T04:59:55;1.65;;;1.58;;
76115;SDS011;64847;45.778;12.802;2023-07-30T05:02:21;1.60;;;1.50;;
76115;SDS011;64847;45.778;12.802;2023-07-30T05:04:46;2.10;;;1.83;;
76115;SDS011;64847;45.778;12.802;2023-07-30T05:07:12;1.83;;;1.60;;
76115;SDS011;64847;45.778;12.802;2023-07-30T05:09:37;1.50;;;1.50;;
76115;SDS011;64847;45.778;12.802;2023-07-30T05:12:03;1.60;;;1.50;;
76115;SDS011;64847;45.778;12.802;2023-07-30T05:14:28;1.40;;;1.40;;
76115;SDS011;64847;45.778;12.802;2023-07-30T05:16:54;1.85;;;1.75;;
76115;SDS011;64847;45.778;12.802;2023-07-30T05:19:19;1.90;;;1.80;;
76115;SDS011;64847;45.778;12.802;2023-07-30T05:21:45;1.70;;;1.60;;
76115;SDS011;64847;45.778;12.802;2023-07-30T05:24:10;1.50;;;1.50;;
76115;SDS011;64847;45.778;12.802;2023-07-30T05:26:36;1.73;;;1.63;;
76115;SDS011;64847;45.778;12.802;2023-07-30T05:29:01;1.73;;;1.67;;
76115;SDS011;64847;45.778;12.802;2023-07-30T05:31:28;1.92;;;1.80;;
76115;SDS011;64847;45.778;12.802;2023-07-30T05:33:53;1.50;;;1.50;;
76115;SDS011;64847;45.778;12.802;2023-07-30T05:36:19;1.88;;;1.77;;
76115;SDS011;64847;45.778;12.802;2023-07-30T05:38:45;1.63;;;1.60;;
76115;SDS011;64847;45.778;12.802;2023-07-30T05:41:11;1.98;;;1.88;;
76115;SDS011;64847;45.778;12.802;2023-07-30T05:43:36;1.60;;;1.60;;
76115;SDS011;64847;45.778;12.802;2023-07-30T05:46:02;1.70;;;1.70;;
76115;SDS011;64847;45.778;12.802;2023-07-30T05:48:27;2.03;;;1.92;;
76115;SDS011;64847;45.778;12.802;2023-07-30T05:50:53;2.05;;;2.00;;
76115;SDS011;64847;45.778;12.802;2023-07-30T05:53:18;2.03;;;1.92;;
76115;SDS011;64847;45.778;12.802;2023-07-30T05:55:43;1.70;;;1.70;;
76115;SDS011;64847;45.778;12.802;2023-07-30T05:58:09;2.30;;;2.20;;
76115;SDS011;64847;45.778;12.802;2023-07-30T06:00:34;2.42;;;2.33;;
76115;SDS011;64847;45.778;12.802;2023-07-30T06:03:00;2.55;;;2.45;;
76115;SDS011;64847;45.778;12.802;2023-07-30T06:05:25;2.30;;;2.20;;
76115;SDS011;64847;45.778;12.802;2023-07-30T06:07:51;2.28;;;2.17;;
76115;SDS011;64847;45.778;12.802;2023-07-30T06:10:16;2.17;;;2.08;;
76115;SDS011;64847;45.778;12.802;2023-07-30T06:12:42;2.50;;;2.40;;
76115;SDS011;64847;45.778;12.802;2023-07-30T06:15:08;2.28;;;2.17;;
76115;SDS011;64847;45.778;12.802;2023-07-30T06:17:35;2.50;;;2.40;;
76115;SDS011;64847;45.778;12.802;2023-07-30T06:20:00;2.10;;;2.00;;
76115;SDS011;64847;45.778;12.802;2023-07-30T06:22:25;2.45;;;2.30;;
76115;SDS011;64847;45.778;12.802;2023-07-30T06:24:51;2.47;;;2.38;;
76115;SDS011;64847;45.778;12.802;2023-07-30T06:27:16;2.47;;;2.38;;
76115;SDS011;64847;45.778;12.802;2023-07-30T06:29:42;2.60;;;2.40;;
76115;SDS011;64847;45.778;12.802;2023-07-30T06:32:07;2.50;;;2.40;;
76115;SDS011;64847;45.778;12.802;2023-07-30T06:34:32;2.20;;;2.10;;
76115;SDS011;64847;45.778;12.802;2023-07-30T06:36:58;2.50;;;2.40;;
76115;SDS011;64847;45.778;12.802;2023-07-30T06:39:23;2.50;;;2.40;;
76115;SDS011;64847;45.778;12.802;2023-07-30T06:41:49;2.13;;;2.03;;
76115;SDS011;64847;45.778;12.802;2023-07-30T06:44:14;2.40;;;2.20;;
76115;SDS011;64847;45.778;12.802;2023-07-30T06:46:39;2.00;;;1.90;;
76115;SDS011;64847;45.778;12.802;2023-07-30T06:49:05;1.75;;;1.67;;
76115;SDS011;64847;45.778;12.802;2023-07-30T06:51:30;1.73;;;1.63;;
76115;SDS011;64847;45.778;12.802;2023-07-30T06:53:56;1.92;;;1.85;;
76115;SDS011;64847;45.778;12.802;2023-07-30T06:56:21;1.70;;;1.70;;
76115;SDS011;64847;45.778;12.802;2023-07-30T06:58:47;1.60;;;1.50;;
76115;SDS011;64847;45.778;12.802;2023-07-30T07:01:12;1.60;;;1.60;;
76115;SDS011;64847;45.778;12.802;2023-07-30T07:03:37;1.55;;;1.50;;
76115;SDS011;64847;45.778;12.802;2023-07-30T07:06:03;1.83;;;1.73;;
76115;SDS011;64847;45.778;12.802;2023-07-30T07:08:30;1.58;;;1.58;;
76115;SDS011;64847;45.778;12.802;2023-07-30T07:10:55;1.20;;;1.20;;
76115;SDS011;64847;45.778;12.802;2023-07-30T07:13:21;1.20;;;1.20;;
76115;SDS011;64847;45.778;12.802;2023-07-30T07:15:46;1.30;;;1.30;;
76115;SDS011;64847;45.778;12.802;2023-07-30T07:18:12;1.20;;;1.20;;
76115;SDS011;64847;45.778;12.802;2023-07-30T07:20:37;1.10;;;1.10;;
76115;SDS011;64847;45.778;12.802;2023-07-30T07:23:03;1.25;;;1.25;;
76115;SDS011;64847;45.778;12.802;2023-07-30T07:25:28;1.33;;;1.33;;
76115;SDS011;64847;45.778;12.802;2023-07-30T07:27:54;1.27;;;1.27;;
76115;SDS011;64847;45.778;12.802;2023-07-30T07:30:19;1.40;;;1.30;;
76115;SDS011;64847;45.778;12.802;2023-07-30T07:32:45;1.30;;;1.30;;
76115;SDS011;64847;45.778;12.802;2023-07-30T07:35:10;1.40;;;1.40;;
76115;SDS011;64847;45.778;12.802;2023-07-30T07:37:35;1.30;;;1.30;;
76115;SDS011;64847;45.778;12.802;2023-07-30T07:40:01;1.30;;;1.30;;
76115;SDS011;64847;45.778;12.802;2023-07-30T07:42:28;1.30;;;1.30;;
76115;SDS011;64847;45.778;12.802;2023-07-30T07:44:55;1.30;;;1.30;;
76115;SDS011;64847;45.778;12.802;2023-07-30T07:47:20;1.40;;;1.40;;
76115;SDS011;64847;45.778;12.802;2023-07-30T07:49:46;1.20;;;1.20;;
76115;SDS011;64847;45.778;12.802;2023-07-30T07:52:11;1.25;;;1.25;;
76115;SDS011;64847;45.778;12.802;2023-07-30T07:54:37;1.38;;;1.20;;
76115;SDS011;64847;45.778;12.802;2023-07-30T07:57:02;1.20;;;1.20;;
76115;SDS011;64847;45.778;12.802;2023-07-30T07:59:28;1.30;;;1.25;;
76115;SDS011;64847;45.778;12.802;2023-07-30T08:01:53;1.10;;;1.10;;
76115;SDS011;64847;45.778;12.802;2023-07-30T08:04:18;1.30;;;1.30;;
76115;SDS011;64847;45.778;12.802;2023-07-30T08:06:46;1.20;;;1.20;;
76115;SDS011;64847;45.778;12.802;2023-07-30T08:09:12;1.38;;;1.38;;
76115;SDS011;64847;45.778;12.802;2023-07-30T08:11:37;1.30;;;1.30;;
76115;SDS011;64847;45.778;12.802;2023-07-30T08:14:02;1.30;;;1.30;;
76115;SDS011;64847;45.778;12.802;2023-07-30T08:16:28;1.10;;;1.10;;
76115;SDS011;64847;45.778;12.802;2023-07-30T08:18:53;1.10;;;1.10;;
76115;SDS011;64847;45.778;12.802;2023-07-30T08:21:19;1.27;;;1.27;;
76115;SDS011;64847;45.778;12.802;2023-07-30T08:23:45;1.00;;;1.00;;
76115;SDS011;64847;45.778;12.802;2023-07-30T08:26:11;1.20;;;1.20;;
76115;SDS011;64847;45.778;12.802;2023-07-30T08:28:36;1.30;;;1.30;;
76115;SDS011;64847;45.778;12.802;2023-07-30T08:31:02;1.20;;;1.20;;
76115;SDS011;64847;45.778;12.802;2023-07-30T08:33:28;1.10;;;1.10;;
76115;SDS011;64847;45.778;12.802;2023-07-30T08:35:58;1.10;;;1.10;;
76115;SDS011;64847;45.778;12.802;2023-07-30T08:38:24;1.10;;;1.10;;
76115;SDS011;64847;45.778;12.802;2023-07-30T08:40:49;1.30;;;1.30;;
76115;SDS011;64847;45.778;12.802;2023-07-30T08:43:15;1.23;;;1.23;;
76115;SDS011;64847;45.778;12.802;2023-07-30T08:45:41;1.17;;;1.17;;
76115;SDS011;64847;45.778;12.802;2023-07-30T08:48:07;1.10;;;1.10;;
76115;SDS011;64847;45.778;12.802;2023-07-30T08:50:33;1.10;;;1.10;;
76115;SDS011;64847;45.778;12.802;2023-07-30T08:52:59;1.23;;;1.23;;
76115;SDS011;64847;45.778;12.802;2023-07-30T08:55:25;1.25;;;1.20;;
76115;SDS011;64847;45.778;12.802;2023-07-30T08:57:52;1.15;;;1.15;;
76115;SDS011;64847;45.778;12.802;2023-07-30T09:00:18;1.20;;;1.20;;
76115;SDS011;64847;45.778;12.802;2023-07-30T09:02:49;1.02;;;1.02;;
76115;SDS011;64847;45.778;12.802;2023-07-30T09:05:17;1.20;;;1.20;;
76115;SDS011;64847;45.778;12.802;2023-07-30T09:07:42;1.20;;;1.20;;
76115;SDS011;64847;45.778;12.802;2023-07-30T09:10:08;1.20;;;1.20;;
76115;SDS011;64847;45.778;12.802;2023-07-30T09:12:34;1.30;;;1.30;;
76115;SDS011;64847;45.778;12.802;2023-07-30T09:15:00;1.20;;;1.20;;
76115;SDS011;64847;45.778;12.802;2023-07-30T09:17:28;1.10;;;1.10;;
76115;SDS011;64847;45.778;12.802;2023-07-30T09:19:53;0.98;;;0.98;;
76115;SDS011;64847;45.778;12.802;2023-07-30T09:22:25;1.20;;;1.20;;
76115;SDS011;64847;45.778;12.802;2023-07-30T09:24:52;1.08;;;1.08;;
76115;SDS011;64847;45.778;12.802;2023-07-30T09:27:22;1.20;;;1.20;;
76115;SDS011;64847;45.778;12.802;2023-07-30T09:29:52;1.20;;;1.20;;
76115;SDS011;64847;45.778;12.802;2023-07-30T09:32:18;1.48;;;1.48;;
76115;SDS011;64847;45.778;12.802;2023-07-30T09:34:44;1.20;;;1.20;;
76115;SDS011;64847;45.778;12.802;2023-07-30T09:37:10;1.10;;;1.10;;
76115;SDS011;64847;45.778;12.802;2023-07-30T09:39:37;1.30;;;1.30;;
76115;SDS011;64847;45.778;12.802;2023-07-30T09:42:02;1.33;;;1.33;;
76115;SDS011;64847;45.778;12.802;2023-07-30T09:44:28;1.20;;;1.20;;
76115;SDS011;64847;45.778;12.802;2023-07-30T09:46:57;1.25;;;1.25;;
76115;SDS011;64847;45.778;12.802;2023-07-30T09:49:22;1.10;;;1.10;;
76115;SDS011;64847;45.778;12.802;2023-07-30T09:51:48;1.10;;;1.10;;
76115;SDS011;64847;45.778;12.802;2023-07-30T09:54:14;1.10;;;1.10;;
76115;SDS011;64847;45.778;12.802;2023-07-30T09:56:40;1.45;;;1.45;;
76115;SDS011;64847;45.778;12.802;2023-07-30T09:59:07;1.10;;;1.10;;
76115;SDS011;64847;45.778;12.802;2023-07-30T10:01:43;1.05;;;1.05;;
76115;SDS011;64847;45.778;12.802;2023-07-30T10:04:11;1.30;;;1.30;;
76115;SDS011;64847;45.778;12.802;2023-07-30T10:06:42;1.20;;;1.20;;
76115;SDS011;64847;45.778;12.802;2023-07-30T10:09:11;1.20;;;1.20;;
76115;SDS011;64847;45.778;12.802;2023-07-30T10:11:38;1.13;;;1.13;;
76115;SDS011;64847;45.778;12.802;2023-07-30T10:14:04;1.15;;;1.15;;
76115;SDS011;64847;45.778;12.802;2023-07-30T10:16:30;1.30;;;1.30;;
76115;SDS011;64847;45.778;12.802;2023-07-30T10:18:56;1.30;;;1.30;;
76115;SDS011;64847;45.778;12.802;2023-07-30T10:21:26;1.30;;;1.30;;
76115;SDS011;64847;45.778;12.802;2023-07-30T10:24:01;1.20;;;1.20;;
76115;SDS011;64847;45.778;12.802;2023-07-30T10:26:28;1.10;;;1.10;;
76115;SDS011;64847;45.778;12.802;2023-07-30T10:29:10;1.20;;;1.20;;
76115;SDS011;64847;45.778;12.802;2023-07-30T10:31:40;1.30;;;1.30;;
76115;SDS011;64847;45.778;12.802;2023-07-30T10:34:07;1.20;;;1.20;;
76115;SDS011;64847;45.778;12.802;2023-07-30T10:36:36;1.10;;;1.10;;
76115;SDS011;64847;45.778;12.802;2023-07-30T10:39:12;1.20;;;1.20;;
76115;SDS011;64847;45.778;12.802;2023-07-30T10:41:51;1.20;;;1.20;;
76115;SDS011;64847;45.778;12.802;2023-07-30T10:44:23;1.33;;;1.20;;
76115;SDS011;64847;45.778;12.802;2023-07-30T10:46:59;1.20;;;1.20;;
76115;SDS011;64847;45.778;12.802;2023-07-30T10:49:25;1.10;;;1.10;;
76115;SDS011;64847;45.778;12.802;2023-07-30T10:51:51;1.20;;;1.20;;
76115;SDS011;64847;45.778;12.802;2023-07-30T10:54:18;0.90;;;0.90;;
76115;SDS011;64847;45.778;12.802;2023-07-30T10:56:43;1.10;;;1.10;;
76115;SDS011;64847;45.778;12.802;2023-07-30T10:59:11;1.10;;;1.10;;
76115;SDS011;64847;45.778;12.802;2023-07-30T11:01:38;1.20;;;1.20;;
76115;SDS011;64847;45.778;12.802;2023-07-30T11:04:17;1.13;;;1.13;;
76115;SDS011;64847;45.778;12.802;2023-07-30T11:06:47;1.10;;;1.10;;
76115;SDS011;64847;45.778;12.802;2023-07-30T11:09:21;1.17;;;1.17;;
76115;SDS011;64847;45.778;12.802;2023-07-30T11:11:49;1.20;;;1.20;;
76115;SDS011;64847;45.778;12.802;2023-07-30T11:14:20;1.25;;;1.25;;
76115;SDS011;64847;45.778;12.802;2023-07-30T11:16:50;1.30;;;1.30;;
76115;SDS011;64847;45.778;12.802;2023-07-30T11:19:17;1.20;;;1.20;;
76115;SDS011;64847;45.778;12.802;2023-07-30T11:21:46;1.10;;;1.10;;
76115;SDS011;64847;45.778;12.802;2023-07-30T11:24:13;1.30;;;1.30;;
76115;SDS011;64847;45.778;12.802;2023-07-30T11:26:38;1.30;;;1.30;;
76115;SDS011;64847;45.778;12.802;2023-07-30T11:29:16;1.20;;;1.10;;
76115;SDS011;64847;45.778;12.802;2023-07-30T11:31:46;1.20;;;1.20;;
76115;SDS011;64847;45.778;12.802;2023-07-30T11:34:12;1.20;;;1.20;;
76115;SDS011;64847;45.778;12.802;2023-07-30T11:36:38;1.10;;;1.10;;
76115;SDS011;64847;45.778;12.802;2023-07-30T11:39:05;1.10;;;1.10;;
76115;SDS011;64847;45.778;12.802;2023-07-30T11:41:31;1.08;;;1.08;;
76115;SDS011;64847;45.778;12.802;2023-07-30T11:43:57;1.10;;;1.10;;
76115;SDS011;64847;45.778;12.802;2023-07-30T11:46:23;1.08;;;1.08;;
76115;SDS011;64847;45.778;12.802;2023-07-30T11:48:49;1.00;;;1.00;;
76115;SDS011;64847;45.778;12.802;2023-07-30T11:51:19;1.20;;;1.20;;
76115;SDS011;64847;45.778;12.802;2023-07-30T11:53:48;1.10;;;1.10;;
76115;SDS011;64847;45.778;12.802;2023-07-30T11:56:16;1.10;;;1.10;;
76115;SDS011;64847;45.778;12.802;2023-07-30T11:58:42;1.23;;;1.23;;
76115;SDS011;64847;45.778;12.802;2023-07-30T12:01:08;1.20;;;1.20;;
76115;SDS011;64847;45.778;12.802;2023-07-30T12:03:33;1.10;;;1.10;;
76115;SDS011;64847;45.778;12.802;2023-07-30T12:05:58;1.10;;;1.10;;
76115;SDS011;64847;45.778;12.802;2023-07-30T12:08:29;1.10;;;1.10;;
76115;SDS011;64847;45.778;12.802;2023-07-30T12:10:55;1.10;;;1.10;;
76115;SDS011;64847;45.778;12.802;2023-07-30T12:13:22;1.13;;;1.13;;
76115;SDS011;64847;45.778;12.802;2023-07-30T12:15:51;1.20;;;1.20;;
76115;SDS011;64847;45.778;12.802;2023-07-30T12:18:17;1.20;;;1.20;;
76115;SDS011;64847;45.778;12.802;2023-07-30T12:20:42;1.08;;;1.08;;
76115;SDS011;64847;45.778;12.802;2023-07-30T12:23:08;1.10;;;1.10;;
76115;SDS011;64847;45.778;12.802;2023-07-30T12:25:33;1.10;;;1.10;;
76115;SDS011;64847;45.778;12.802;2023-07-30T12:27:59;1.00;;;1.00;;
76115;SDS011;64847;45.778;12.802;2023-07-30T12:30:25;1.02;;;1.02;;
76115;SDS011;64847;45.778;12.802;2023-07-30T12:32:51;1.48;;;1.38;;
76115;SDS011;64847;45.778;12.802;2023-07-30T12:35:17;1.02;;;1.02;;
76115;SDS011;64847;45.778;12.802;2023-07-30T12:37:42;1.20;;;1.20;;
76115;SDS011;64847;45.778;12.802;2023-07-30T12:40:08;1.10;;;1.10;;
76115;SDS011;64847;45.778;12.802;2023-07-30T12:42:33;1.25;;;1.25;;
76115;SDS011;64847;45.778;12.802;2023-07-30T12:44:59;1.08;;;1.08;;
76115;SDS011;64847;45.778;12.802;2023-07-30T12:47:24;1.15;;;1.15;;
76115;SDS011;64847;45.778;12.802;2023-07-30T12:49:49;1.20;;;1.10;;
76115;SDS011;64847;45.778;12.802;2023-07-30T12:52:15;1.20;;;1.20;;
76115;SDS011;64847;45.778;12.802;2023-07-30T12:54:40;1.10;;;1.10;;
76115;SDS011;64847;45.778;12.802;2023-07-30T12:57:06;1.10;;;1.10;;
76115;SDS011;64847;45.778;12.802;2023-07-30T12:59:31;1.20;;;1.20;;
76115;SDS011;64847;45.778;12.802;2023-07-30T13:01:57;1.00;;;1.00;;
76115;SDS011;64847;45.778;12.802;2023-07-30T13:04:23;1.10;;;1.10;;
76115;SDS011;64847;45.778;12.802;2023-07-30T13:06:51;1.00;;;1.00;;
76115;SDS011;64847;45.778;12.802;2023-07-30T13:09:17;1.02;;;1.02;;
76115;SDS011;64847;45.778;12.802;2023-07-30T13:11:42;1.00;;;1.00;;
76115;SDS011;64847;45.778;12.802;2023-07-30T13:14:08;1.00;;;1.00;;
76115;SDS011;64847;45.778;12.802;2023-07-30T13:16:33;1.13;;;1.10;;
76115;SDS011;64847;45.778;12.802;2023-07-30T13:18:58;1.10;;;1.10;;
76115;SDS011;64847;45.778;12.802;2023-07-30T13:21:24;1.10;;;1.10;;
76115;SDS011;64847;45.778;12.802;2023-07-30T13:23:49;1.00;;;1.00;;
76115;SDS011;64847;45.778;12.802;2023-07-30T13:26:15;1.10;;;1.10;;
76115;SDS011;64847;45.778;12.802;2023-07-30T13:28:41;1.10;;;1.10;;
76115;SDS011;64847;45.778;12.802;2023-07-30T13:31:06;1.20;;;1.20;;
76115;SDS011;64847;45.778;12.802;2023-07-30T13:33:31;1.10;;;1.10;;
76115;SDS011;64847;45.778;12.802;2023-07-30T13:35:57;1.08;;;1.08;;
76115;SDS011;64847;45.778;12.802;2023-07-30T13:38:22;1.15;;;1.15;;
76115;SDS011;64847;45.778;12.802;2023-07-30T13:40:50;0.95;;;0.95;;
76115;SDS011;64847;45.778;12.802;2023-07-30T13:43:15;1.10;;;1.10;;
76115;SDS011;64847;45.778;12.802;2023-07-30T13:45:41;1.10;;;1.10;;
76115;SDS011;64847;45.778;12.802;2023-07-30T13:48:06;1.23;;;1.23;;
76115;SDS011;64847;45.778;12.802;2023-07-30T13:50:32;1.10;;;1.10;;
76115;SDS011;64847;45.778;12.802;2023-07-30T13:52:57;1.20;;;1.20;;
76115;SDS011;64847;45.778;12.802;2023-07-30T13:55:23;1.10;;;1.10;;
76115;SDS011;64847;45.778;12.802;2023-07-30T13:57:48;1.30;;;1.30;;
76115;SDS011;64847;45.778;12.802;2023-07-30T14:00:13;1.33;;;1.23;;
76115;SDS011;64847;45.778;12.802;2023-07-30T14:02:40;1.20;;;1.20;;
76115;SDS011;64847;45.778;12.802;2023-07-30T14:05:05;1.38;;;1.38;;
76115;SDS011;64847;45.778;12.802;2023-07-30T14:07:30;1.27;;;1.27;;
76115;SDS011;64847;45.778;12.802;2023-07-30T14:09:56;1.25;;;1.25;;
76115;SDS011;64847;45.778;12.802;2023-07-30T14:12:21;1.30;;;1.30;;
76115;SDS011;64847;45.778;12.802;2023-07-30T14:14:47;1.27;;;1.27;;
76115;SDS011;64847;45.778;12.802;2023-07-30T14:17:12;1.20;;;1.20;;
76115;SDS011;64847;45.778;12.802;2023-07-30T14:19:37;1.17;;;1.17;;
76115;SDS011;64847;45.778;12.802;2023-07-30T14:22:03;1.35;;;1.30;;
76115;SDS011;64847;45.778;12.802;2023-07-30T14:24:28;1.50;;;1.40;;
76115;SDS011;64847;45.778;12.802;2023-07-30T14:26:54;1.20;;;1.20;;